Terminal Aerodrome Forecast
Issued by NWS

Current Version | Previous Version | Text Only | Print | Product List | Glossary On
Versions: 1 2 3 4 5 6 7 8 9 10 11 12 13 14 15 16 17 18 19 20
000
FTUS43 KJKL 050705 AAA
TAFSME
TAF AMD
KSME 050705Z 0507/0606 02008KT 5SM -FZRAPL BKN009 OVC013
     FM050900 03008KT 1SM -SN OVC008
     FM051500 05008KT 2SM -SN BR OVC010
     FM052000 05006KT P6SM BKN020=

USA.gov is the U.S. government's official web portal to all federal, state and local government web resources and services.